createdAt,value
2019-02-05T00:00:04.080Z,99.99
2019-02-05T00:01:04.071Z,99.99
2019-02-05T00:02:04.133Z,99.99
2019-02-05T00:03:04.045Z,99.99
2019-02-05T00:04:04.035Z,99.99
2019-02-05T00:05:04.036Z,99.99
2019-02-05T00:06:04.014Z,99.99
2019-02-05T00:07:03.999Z,99.99
2019-02-05T00:08:03.988Z,99.99
2019-02-05T00:09:03.975Z,99.99
2019-02-05T00:10:03.970Z,99.99
2019-02-05T00:11:03.970Z,99.99
2019-02-05T00:12:03.999Z,99.99
2019-02-05T00:13:03.929Z,99.99
2019-02-05T00:14:03.919Z,99.99
2019-02-05T00:15:03.905Z,99.99
2019-02-05T00:16:03.909Z,99.99
2019-02-05T00:17:03.882Z,99.99
2019-02-05T00:18:03.872Z,99.99
2019-02-05T00:19:03.859Z,99.99
2019-02-05T00:20:03.849Z,99.99
2019-02-05T00:21:03.836Z,99.99
2019-02-05T00:22:03.825Z,99.99
2019-02-05T00:23:03.812Z,99.99
2019-02-05T00:24:03.801Z,99.99
2019-02-05T00:25:03.787Z,99.99
2019-02-05T00:26:06.420Z,99.99
2019-02-05T00:27:03.764Z,99.99
2019-02-05T00:28:03.754Z,99.99
2019-02-05T00:29:03.741Z,99.99
2019-02-05T00:30:03.730Z,99.99
2019-02-05T00:31:03.716Z,99.99
2019-02-05T00:32:03.705Z,99.99
2019-02-05T00:33:03.693Z,99.99
2019-02-05T00:34:03.682Z,99.99
2019-02-05T00:35:03.669Z,99.99
2019-02-05T00:36:03.657Z,99.99
2019-02-05T00:37:03.646Z,99.99
2019-02-05T00:38:03.634Z,99.96
2019-02-05T00:39:03.619Z,99.48
2019-02-05T00:40:03.613Z,99.01
2019-02-05T00:41:03.597Z,98.63
2019-02-05T00:42:03.586Z,98.82
2019-02-05T00:43:03.572Z,98.35
2019-02-05T00:44:03.560Z,97.87
2019-02-05T00:45:03.549Z,97.78
2019-02-05T00:46:03.537Z,98.06
2019-02-05T00:47:03.523Z,97.40
2019-02-05T00:48:03.513Z,97.11
2019-02-05T00:49:03.504Z,95.88
2019-02-05T00:50:03.489Z,96.17
2019-02-05T00:51:03.475Z,95.60
2019-02-05T00:52:03.463Z,94.65
2019-02-05T00:53:03.449Z,94.08
2019-02-05T00:54:03.441Z,93.61
2019-02-05T00:55:03.426Z,94.08
2019-02-05T00:56:03.417Z,93.23
2019-02-05T00:57:03.401Z,93.04
2019-02-05T00:58:03.401Z,92.85
2019-02-05T00:59:03.377Z,92.57
2019-02-05T01:00:03.375Z,91.90
2019-02-05T01:01:03.352Z,91.90
2019-02-05T01:02:03.342Z,91.43
2019-02-05T01:03:03.328Z,90.95
2019-02-05T01:04:03.319Z,90.67
2019-02-05T01:05:03.306Z,90.67
2019-02-05T01:06:03.315Z,90.29
2019-02-05T01:07:03.279Z,89.91
2019-02-05T01:08:03.269Z,89.25
2019-02-05T01:09:03.259Z,89.44
2019-02-05T01:10:03.244Z,88.87
2019-02-05T01:11:03.230Z,88.87
2019-02-05T01:12:03.221Z,88.78
2019-02-05T01:13:03.205Z,89.06
2019-02-05T01:14:03.196Z,88.59
2019-02-05T01:15:03.189Z,87.73
2019-02-05T01:16:03.170Z,87.92
2019-02-05T01:17:03.156Z,87.45
2019-02-05T01:18:03.147Z,86.60
2019-02-05T01:19:03.132Z,86.50
2019-02-05T01:20:03.122Z,85.84
2019-02-05T01:21:03.107Z,86.12
2019-02-05T01:22:03.100Z,85.65
2019-02-05T01:23:03.083Z,84.89
2019-02-05T01:24:03.074Z,85.08
2019-02-05T01:25:03.058Z,84.32
2019-02-05T01:26:03.051Z,84.51
2019-02-05T01:27:03.049Z,83.94
2019-02-05T01:28:03.023Z,83.94
2019-02-05T01:29:03.009Z,84.13
2019-02-05T01:30:02.998Z,84.13
2019-02-05T01:31:02.997Z,83.47
2019-02-05T01:32:02.973Z,83.47
2019-02-05T01:33:02.959Z,83.09
2019-02-05T01:34:02.949Z,82.52
2019-02-05T01:35:02.959Z,82.43
2019-02-05T01:36:02.924Z,82.52
2019-02-05T01:37:02.909Z,82.14
2019-02-05T01:38:02.900Z,81.38
2019-02-05T01:39:02.885Z,81.20
2019-02-05T01:40:02.875Z,81.29
2019-02-05T01:41:02.860Z,81.48
2019-02-05T01:42:02.853Z,80.91
2019-02-05T01:43:02.836Z,80.91
2019-02-05T01:44:02.826Z,80.91
2019-02-05T01:45:02.811Z,80.72
2019-02-05T01:46:02.801Z,81.10
2019-02-05T01:47:02.787Z,81.29
2019-02-05T01:48:02.776Z,80.72
2019-02-05T01:49:02.764Z,80.82
2019-02-05T01:50:02.753Z,80.53
2019-02-05T01:51:02.737Z,80.53
2019-02-05T01:52:02.727Z,80.44
2019-02-05T01:53:02.713Z,79.77
2019-02-05T01:54:02.703Z,80.06
2019-02-05T01:55:02.691Z,79.87
2019-02-05T01:56:02.680Z,79.39
2019-02-05T01:57:02.664Z,79.02
2019-02-05T01:58:02.655Z,80.15
2019-02-05T01:59:02.639Z,79.39
2019-02-05T02:00:02.629Z,79.49
2019-02-05T02:01:02.614Z,79.21
2019-02-05T02:02:02.605Z,79.39
2019-02-05T02:03:02.597Z,79.39
2019-02-05T02:04:02.580Z,79.11
2019-02-05T02:05:02.565Z,79.39
2019-02-05T02:06:02.556Z,79.11
2019-02-05T02:07:02.541Z,79.11
2019-02-05T02:08:02.531Z,78.07
2019-02-05T02:09:02.517Z,79.02
2019-02-05T02:10:02.508Z,77.97
2019-02-05T02:11:02.492Z,78.16
2019-02-05T02:12:02.482Z,77.97
2019-02-05T02:13:02.472Z,78.35
2019-02-05T02:14:02.457Z,78.07
2019-02-05T02:15:02.443Z,78.26
2019-02-05T02:16:02.432Z,78.07
2019-02-05T02:17:02.417Z,78.26
2019-02-05T02:18:02.411Z,78.45
2019-02-05T02:19:02.394Z,78.07
2019-02-05T02:20:02.385Z,78.07
2019-02-05T02:21:02.371Z,77.97
2019-02-05T02:22:02.359Z,78.07
2019-02-05T02:23:02.345Z,78.16
2019-02-05T02:24:02.334Z,78.07
2019-02-05T02:25:02.319Z,78.16
2019-02-05T02:26:02.310Z,77.78
2019-02-05T02:27:02.297Z,78.16
2019-02-05T02:28:02.285Z,77.78
2019-02-05T02:29:02.271Z,78.07
2019-02-05T02:30:02.270Z,78.45
2019-02-05T02:31:02.248Z,78.26
2019-02-05T02:32:02.251Z,78.07
2019-02-05T02:33:02.223Z,78.54
2019-02-05T02:34:02.213Z,79.11
2019-02-05T02:35:02.200Z,78.83
2019-02-05T02:36:02.189Z,78.73
2019-02-05T02:37:02.173Z,79.21
2019-02-05T02:38:02.167Z,79.58
2019-02-05T02:39:02.148Z,79.87
2019-02-05T02:40:02.151Z,79.96
2019-02-05T02:41:02.129Z,80.15
2019-02-05T02:42:02.114Z,80.34
2019-02-05T02:43:02.099Z,80.44
2019-02-05T02:44:02.089Z,80.44
2019-02-05T02:45:02.132Z,80.72
2019-02-05T02:46:02.316Z,81.10
2019-02-05T02:47:02.055Z,81.10
2019-02-05T02:48:02.050Z,80.53
2019-02-05T02:49:02.032Z,81.10
2019-02-05T02:50:02.017Z,80.91
2019-02-05T02:51:02.003Z,80.82
2019-02-05T02:52:01.998Z,80.72
2019-02-05T02:53:01.978Z,81.38
2019-02-05T02:54:01.968Z,81.10
2019-02-05T02:55:01.959Z,81.57
2019-02-05T02:56:01.952Z,81.86
2019-02-05T02:57:04.863Z,82.33
2019-02-05T02:58:01.920Z,82.05
2019-02-05T02:59:01.903Z,82.05
2019-02-05T03:00:01.893Z,81.67
2019-02-05T03:01:01.881Z,81.67
2019-02-05T03:02:01.871Z,82.24
2019-02-05T03:03:01.856Z,82.05
2019-02-05T03:04:01.844Z,81.95
2019-02-05T03:05:01.834Z,82.05
2019-02-05T03:06:01.819Z,82.90
2019-02-05T03:07:01.806Z,83.09
2019-02-05T03:08:01.794Z,82.81
2019-02-05T03:09:01.783Z,83.47
2019-02-05T03:10:01.775Z,84.13
2019-02-05T03:11:01.758Z,84.13
2019-02-05T03:12:01.749Z,84.13
2019-02-05T03:13:01.740Z,84.51
2019-02-05T03:14:01.723Z,84.61
2019-02-05T03:15:01.709Z,84.61
2019-02-05T03:16:01.744Z,84.99
2019-02-05T03:17:01.697Z,84.89
2019-02-05T03:18:01.674Z,85.27
2019-02-05T03:19:01.662Z,85.27
2019-02-05T03:20:01.649Z,85.84
2019-02-05T03:21:01.636Z,86.31
2019-02-05T03:22:01.627Z,86.22
2019-02-05T03:23:01.613Z,86.03
2019-02-05T03:24:01.602Z,85.84
2019-02-05T03:25:01.588Z,85.74
2019-02-05T03:26:01.579Z,85.74
2019-02-05T03:27:01.564Z,85.93
2019-02-05T03:28:01.557Z,85.84
2019-02-05T03:29:01.540Z,85.65
2019-02-05T03:30:01.535Z,86.22
2019-02-05T03:31:01.520Z,86.12
2019-02-05T03:32:01.504Z,86.12
2019-02-05T03:33:01.494Z,85.84
2019-02-05T03:34:01.479Z,85.46
2019-02-05T03:35:01.493Z,86.12
2019-02-05T03:36:01.457Z,85.84
2019-02-05T03:37:01.454Z,86.03
2019-02-05T03:38:01.432Z,86.22
2019-02-05T03:39:01.421Z,86.60
2019-02-05T03:40:01.407Z,86.98
2019-02-05T03:41:01.397Z,86.98
2019-02-05T03:42:01.383Z,87.07
2019-02-05T03:43:01.375Z,86.31
2019-02-05T03:44:01.359Z,86.50
2019-02-05T03:45:01.359Z,86.50
2019-02-05T03:46:01.336Z,87.07
2019-02-05T03:47:01.326Z,86.88
2019-02-05T03:48:01.311Z,86.31
2019-02-05T03:49:01.308Z,85.65
2019-02-05T03:50:01.288Z,85.93
2019-02-05T03:51:01.279Z,86.03
2019-02-05T03:52:01.265Z,85.74
2019-02-05T03:53:01.256Z,85.27
2019-02-05T03:54:01.242Z,84.89
2019-02-05T03:55:01.248Z,85.55
2019-02-05T03:56:01.303Z,85.74
2019-02-05T03:57:01.220Z,85.93
2019-02-05T03:58:01.195Z,86.60
2019-02-05T03:59:01.191Z,86.69
2019-02-05T04:00:01.212Z,86.88
2019-02-05T04:01:01.163Z,86.60
2019-02-05T04:02:01.159Z,86.98
2019-02-05T04:03:01.141Z,86.88
2019-02-05T04:04:01.127Z,86.60
2019-02-05T04:05:01.116Z,87.07
2019-02-05T04:06:01.104Z,87.35
2019-02-05T04:07:01.095Z,87.16
2019-02-05T04:08:01.079Z,87.92
2019-02-05T04:09:01.074Z,87.26
2019-02-05T04:10:01.058Z,87.45
2019-02-05T04:11:01.048Z,86.88
2019-02-05T04:12:01.632Z,86.60
2019-02-05T04:13:01.025Z,86.88
2019-02-05T04:14:01.011Z,86.79
2019-02-05T04:15:01.257Z,86.31
2019-02-05T04:16:00.988Z,86.79
2019-02-05T04:17:00.985Z,85.55
2019-02-05T04:18:00.964Z,85.93
2019-02-05T04:19:00.957Z,85.46
2019-02-05T04:20:00.940Z,85.46
2019-02-05T04:21:00.934Z,84.80
2019-02-05T04:22:00.917Z,85.08
2019-02-05T04:23:00.909Z,84.61
2019-02-05T04:24:00.894Z,84.32
2019-02-05T04:25:00.884Z,83.66
2019-02-05T04:26:00.872Z,83.56
2019-02-05T04:27:00.863Z,83.09
2019-02-05T04:28:00.846Z,83.18
2019-02-05T04:29:00.847Z,82.52
2019-02-05T04:30:00.823Z,82.14
2019-02-05T04:31:00.813Z,81.57
2019-02-05T04:32:00.800Z,80.91
2019-02-05T04:33:00.895Z,80.63
2019-02-05T04:34:00.775Z,80.63
2019-02-05T04:35:00.820Z,80.34
2019-02-05T04:36:00.751Z,79.58
2019-02-05T04:37:00.742Z,79.87
2019-02-05T04:38:00.728Z,79.68
2019-02-05T04:39:00.718Z,79.39
2019-02-05T04:40:00.703Z,79.21
2019-02-05T04:41:00.794Z,78.83
2019-02-05T04:42:00.680Z,78.45
2019-02-05T04:43:00.672Z,78.35
2019-02-05T04:44:00.659Z,77.88
2019-02-05T04:45:00.948Z,78.35
2019-02-05T04:46:00.633Z,77.50
2019-02-05T04:47:00.627Z,77.88
2019-02-05T04:48:00.609Z,77.50
2019-02-05T04:49:00.599Z,76.84
2019-02-05T04:50:00.631Z,76.84
2019-02-05T04:51:00.579Z,76.93
2019-02-05T04:52:00.562Z,76.55
2019-02-05T04:53:00.559Z,76.08
2019-02-05T04:54:00.539Z,76.17
2019-02-05T04:55:00.529Z,76.08
2019-02-05T04:56:00.517Z,75.42
2019-02-05T04:57:00.506Z,75.04
2019-02-05T04:58:01.642Z,75.04
2019-02-05T04:59:00.482Z,74.75
2019-02-05T05:00:00.501Z,74.28
2019-02-05T05:01:00.458Z,74.37
2019-02-05T05:02:00.444Z,73.80
2019-02-05T05:03:00.437Z,73.90
2019-02-05T05:04:00.421Z,73.43
2019-02-05T05:05:00.412Z,73.24
2019-02-05T05:06:00.397Z,73.24
2019-02-05T05:07:00.389Z,72.86
2019-02-05T05:08:00.377Z,72.86
2019-02-05T05:09:00.364Z,72.38
2019-02-05T05:10:00.501Z,71.72
2019-02-05T05:11:00.341Z,71.91
2019-02-05T05:12:00.327Z,71.91
2019-02-05T05:13:00.317Z,71.53
2019-02-05T05:14:00.303Z,71.53
2019-02-05T05:15:00.755Z,71.44
2019-02-05T05:16:00.279Z,71.25
2019-02-05T05:17:00.269Z,71.25
2019-02-05T05:18:00.255Z,71.25
2019-02-05T05:19:00.252Z,71.34
2019-02-05T05:20:00.483Z,70.68
2019-02-05T05:21:00.222Z,70.78
2019-02-05T05:22:00.209Z,70.68
2019-02-05T05:23:00.200Z,70.68
2019-02-05T05:24:00.215Z,70.87
2019-02-05T05:25:00.340Z,70.49
2019-02-05T05:26:00.164Z,70.68
2019-02-05T05:27:00.157Z,70.20
2019-02-05T05:28:09.678Z,70.20
2019-02-05T05:29:00.134Z,70.58
2019-02-05T05:30:00.345Z,69.64
2019-02-05T05:31:00.117Z,69.82
2019-02-05T05:32:00.094Z,69.54
2019-02-05T05:33:00.083Z,69.82
2019-02-05T05:34:00.068Z,69.73
2019-02-05T05:35:00.099Z,69.73
2019-02-05T05:36:00.045Z,69.26
2019-02-05T05:37:00.047Z,69.64
2019-02-05T05:38:00.022Z,68.98
2019-02-05T05:39:00.013Z,69.35
2019-02-05T05:39:59.998Z,68.59
2019-02-05T05:40:59.990Z,68.59
2019-02-05T05:41:59.978Z,68.59
2019-02-05T05:42:59.986Z,68.50
2019-02-05T05:43:59.954Z,68.31
2019-02-05T05:44:59.942Z,68.31
2019-02-05T05:46:00.231Z,68.50
2019-02-05T05:46:59.922Z,68.59
2019-02-05T05:47:59.910Z,68.88
2019-02-05T05:48:59.895Z,68.50
2019-02-05T05:49:59.885Z,68.02
2019-02-05T05:50:59.875Z,68.12
2019-02-05T05:51:59.862Z,68.50
2019-02-05T05:52:59.848Z,68.50
2019-02-05T05:53:59.835Z,68.31
2019-02-05T05:54:59.832Z,68.40
2019-02-05T05:55:59.814Z,68.21
2019-02-05T05:56:59.803Z,68.40
2019-02-05T05:57:59.789Z,68.12
2019-02-05T05:58:59.779Z,68.31
2019-02-05T05:59:59.767Z,68.02
2019-02-05T06:00:59.755Z,67.74
2019-02-05T06:01:59.741Z,67.93
2019-02-05T06:02:59.733Z,68.02
2019-02-05T06:03:59.720Z,67.93
2019-02-05T06:04:59.710Z,68.02
2019-02-05T06:05:59.698Z,67.65
2019-02-05T06:06:59.688Z,67.83
2019-02-05T06:07:59.672Z,68.12
2019-02-05T06:08:59.666Z,68.50
2019-02-05T06:09:59.652Z,68.31
2019-02-05T06:10:59.753Z,68.21
2019-02-05T06:11:59.630Z,67.93
2019-02-05T06:12:59.699Z,67.74
2019-02-05T06:13:59.605Z,67.74
2019-02-05T06:14:59.623Z,68.02
2019-02-05T06:15:59.585Z,67.93
2019-02-05T06:16:59.577Z,67.93
2019-02-05T06:17:59.560Z,67.83
2019-02-05T06:18:59.554Z,67.74
2019-02-05T06:19:59.537Z,68.15
2019-02-05T06:20:59.530Z,68.06
2019-02-05T06:21:59.593Z,67.68
2019-02-05T06:22:59.510Z,67.83
2019-02-05T06:23:59.493Z,67.65
2019-02-05T06:24:59.484Z,68.21
2019-02-05T06:25:59.471Z,68.31
2019-02-05T06:26:59.463Z,68.31
2019-02-05T06:27:59.452Z,68.59
2019-02-05T06:28:59.440Z,68.59
2019-02-05T06:29:59.427Z,68.79
2019-02-05T06:30:59.426Z,68.69
2019-02-05T06:31:59.406Z,68.59
2019-02-05T06:32:59.408Z,68.50
2019-02-05T06:33:59.386Z,68.31
2019-02-05T06:34:59.374Z,68.50
2019-02-05T06:35:59.360Z,68.69
2019-02-05T06:36:59.351Z,68.69
2019-02-05T06:37:59.357Z,68.79
2019-02-05T06:38:59.344Z,69.45
2019-02-05T06:39:59.315Z,69.54
2019-02-05T06:40:59.317Z,68.69
2019-02-05T06:41:59.307Z,68.79
2019-02-05T06:42:59.283Z,68.69
2019-02-05T06:43:59.269Z,68.88
2019-02-05T06:44:59.263Z,68.69
2019-02-05T06:45:59.249Z,69.54
2019-02-05T06:46:59.237Z,68.98
2019-02-05T06:47:59.223Z,68.59
2019-02-05T06:48:59.215Z,68.40
2019-02-05T06:49:59.201Z,68.79
2019-02-05T06:50:59.192Z,68.79
2019-02-05T06:51:59.177Z,68.50
2019-02-05T06:52:59.169Z,68.40
2019-02-05T06:53:59.156Z,68.50
2019-02-05T06:54:59.145Z,68.98
2019-02-05T06:55:59.131Z,68.59
2019-02-05T06:56:59.122Z,68.98
2019-02-05T06:57:59.111Z,68.40
2019-02-05T06:58:59.099Z,68.88
2019-02-05T06:59:59.091Z,68.88
2019-02-05T07:00:59.085Z,69.54
2019-02-05T07:01:59.062Z,69.26
2019-02-05T07:02:59.054Z,69.64
2019-02-05T07:03:59.038Z,68.98
2019-02-05T07:04:59.029Z,68.98
2019-02-05T07:05:59.020Z,68.59
2019-02-05T07:06:59.009Z,68.79
2019-02-05T07:07:58.997Z,69.17
2019-02-05T07:08:58.985Z,69.45
2019-02-05T07:09:58.981Z,69.17
2019-02-05T07:10:58.964Z,68.98
2019-02-05T07:11:58.951Z,69.64
2019-02-05T07:12:59.053Z,69.54
2019-02-05T07:13:58.939Z,69.54
2019-02-05T07:14:58.915Z,69.67
2019-02-05T07:15:58.905Z,69.48
2019-02-05T07:16:58.892Z,69.38
2019-02-05T07:17:58.886Z,69.26
2019-02-05T07:18:58.869Z,69.86
2019-02-05T07:19:58.861Z,69.57
2019-02-05T07:20:58.846Z,69.77
2019-02-05T07:21:58.841Z,69.86
2019-02-05T07:22:58.827Z,69.96
2019-02-05T07:23:58.817Z,69.77
2019-02-05T07:24:58.801Z,69.48
2019-02-05T07:25:58.793Z,69.77
2019-02-05T07:26:58.781Z,69.77
2019-02-05T07:27:58.770Z,69.77
2019-02-05T07:29:02.050Z,69.67
2019-02-05T07:29:58.756Z,70.05
2019-02-05T07:30:58.734Z,70.15
2019-02-05T07:31:58.728Z,70.24
2019-02-05T07:32:58.712Z,70.15
2019-02-05T07:33:59.005Z,70.53
2019-02-05T07:34:58.696Z,70.53
2019-02-05T07:35:58.680Z,70.81
2019-02-05T07:36:58.667Z,70.34
2019-02-05T07:37:58.659Z,70.81
2019-02-05T07:38:58.895Z,71.47
2019-02-05T07:39:58.636Z,71.38
2019-02-05T07:40:58.626Z,71.38
2019-02-05T07:41:58.613Z,71.76
2019-02-05T07:42:58.602Z,71.28
2019-02-05T07:43:58.590Z,71.19
2019-02-05T07:44:58.579Z,71.47
2019-02-05T07:45:58.568Z,71.38
2019-02-05T07:46:58.555Z,71.28
2019-02-05T07:47:58.543Z,71.47
2019-02-05T07:48:58.535Z,71.47
2019-02-05T07:49:58.521Z,71.28
2019-02-05T07:50:58.516Z,71.28
2019-02-05T07:51:58.498Z,71.47
2019-02-05T07:52:58.489Z,71.28
2019-02-05T07:53:58.586Z,71.38
2019-02-05T07:54:58.468Z,71.28
2019-02-05T07:55:58.469Z,71.28
2019-02-05T07:56:58.446Z,71.38
2019-02-05T07:57:58.434Z,71.19
2019-02-05T07:59:09.576Z,71.38
2019-02-05T07:59:58.409Z,71.66
2019-02-05T08:00:58.403Z,72.33
2019-02-05T08:01:58.389Z,72.61
2019-02-05T08:02:58.383Z,72.71
2019-02-05T08:03:58.366Z,73.08
2019-02-05T08:05:00.734Z,73.08
2019-02-05T08:05:58.345Z,73.08
2019-02-05T08:06:58.336Z,73.18
2019-02-05T08:07:58.464Z,73.37
2019-02-05T08:08:58.565Z,72.80
2019-02-05T08:09:58.303Z,73.27
2019-02-05T08:10:58.293Z,73.18
2019-02-05T08:11:58.280Z,73.46
2019-02-05T08:12:58.272Z,73.08
2019-02-05T08:13:58.259Z,74.03
2019-02-05T08:14:58.251Z,74.13
2019-02-05T08:15:58.267Z,74.41
2019-02-05T08:16:58.230Z,74.60
2019-02-05T08:17:58.217Z,74.22
2019-02-05T08:18:58.209Z,74.32
2019-02-05T08:19:58.194Z,74.13
2019-02-05T08:20:58.208Z,74.03
2019-02-05T08:21:58.174Z,74.03
2019-02-05T08:22:58.167Z,74.32
2019-02-05T08:23:58.246Z,74.88
2019-02-05T08:24:58.147Z,75.26
2019-02-05T08:25:58.131Z,75.07
2019-02-05T08:26:58.124Z,75.45
2019-02-05T08:27:58.111Z,75.26
2019-02-05T08:28:58.104Z,74.98
2019-02-05T08:29:58.090Z,76.40
2019-02-05T08:30:58.084Z,76.87
2019-02-05T08:31:58.069Z,76.97
2019-02-05T08:32:58.061Z,77.45
2019-02-05T08:33:58.051Z,77.73
2019-02-05T08:34:58.042Z,77.73
2019-02-05T08:35:58.027Z,78.30
2019-02-05T08:36:58.019Z,78.11
2019-02-05T08:37:58.014Z,78.77
2019-02-05T08:38:58.001Z,78.77
2019-02-05T08:39:57.988Z,77.92
2019-02-05T08:40:57.976Z,77.73
2019-02-05T08:41:57.967Z,78.67
2019-02-05T08:42:57.956Z,78.58
2019-02-05T08:43:57.945Z,78.96
2019-02-05T08:44:57.934Z,78.20
2019-02-05T08:45:57.923Z,78.96
2019-02-05T08:46:57.915Z,79.44
2019-02-05T08:47:57.899Z,78.87
2019-02-05T08:48:57.892Z,78.87
2019-02-05T08:49:57.879Z,78.96
2019-02-05T08:50:57.871Z,78.20
2019-02-05T08:51:57.944Z,78.58
2019-02-05T08:52:57.848Z,78.30
2019-02-05T08:53:57.841Z,78.77
2019-02-05T08:54:57.830Z,79.44
2019-02-05T08:55:57.815Z,78.87
2019-02-05T08:56:57.805Z,78.67
2019-02-05T08:57:57.792Z,78.49
2019-02-05T08:58:57.785Z,78.20
2019-02-05T08:59:57.770Z,77.92
2019-02-05T09:00:57.765Z,78.30
2019-02-05T09:01:57.751Z,78.67
2019-02-05T09:02:57.744Z,78.96
2019-02-05T09:03:57.732Z,79.06
2019-02-05T09:04:57.723Z,79.06
2019-02-05T09:05:57.708Z,79.06
2019-02-05T09:06:57.707Z,79.34
2019-02-05T09:07:57.686Z,79.44
2019-02-05T09:08:57.680Z,79.25
2019-02-05T09:09:57.916Z,79.91
2019-02-05T09:10:57.658Z,80.48
2019-02-05T09:11:57.645Z,80.76
2019-02-05T09:12:57.639Z,81.14
2019-02-05T09:13:57.630Z,81.52
2019-02-05T09:14:57.616Z,81.33
2019-02-05T09:15:57.605Z,81.81
2019-02-05T09:16:57.596Z,81.99
2019-02-05T09:17:57.582Z,81.71
2019-02-05T09:18:57.587Z,81.43
2019-02-05T09:19:57.561Z,81.14
2019-02-05T09:20:57.553Z,80.67
2019-02-05T09:21:57.540Z,80.00
2019-02-05T09:22:57.630Z,79.53
2019-02-05T09:23:57.527Z,79.06
2019-02-05T09:24:57.511Z,79.19
2019-02-05T09:25:57.498Z,79.44
2019-02-05T09:26:57.490Z,79.34
2019-02-05T09:27:57.477Z,80.38
2019-02-05T09:28:57.474Z,79.91
2019-02-05T09:29:57.457Z,80.33
2019-02-05T09:30:57.449Z,79.91
2019-02-05T09:31:57.437Z,81.33
2019-02-05T09:32:57.434Z,81.90
2019-02-05T09:33:57.417Z,82.09
2019-02-05T09:34:57.409Z,81.90
2019-02-05T09:35:57.395Z,82.85
2019-02-05T09:36:57.389Z,82.56
2019-02-05T09:37:57.978Z,82.85
2019-02-05T09:38:57.368Z,82.13
2019-02-05T09:39:57.605Z,82.60
2019-02-05T09:40:57.349Z,81.75
2019-02-05T09:41:57.335Z,81.75
2019-02-05T09:42:57.329Z,82.04
2019-02-05T09:43:57.318Z,82.89
2019-02-05T09:44:57.609Z,82.98
2019-02-05T09:45:57.295Z,83.65
2019-02-05T09:46:57.289Z,84.03
2019-02-05T09:47:57.278Z,84.22
2019-02-05T09:48:57.272Z,84.98
2019-02-05T09:49:57.262Z,84.98
2019-02-05T09:50:57.253Z,85.07
2019-02-05T09:51:57.237Z,85.17
2019-02-05T09:52:57.230Z,86.78
2019-02-05T09:53:57.218Z,87.02
2019-02-05T09:54:57.210Z,87.63
2019-02-05T09:55:57.197Z,88.25
2019-02-05T09:56:57.190Z,89.39
2019-02-05T09:57:57.180Z,90.38
2019-02-05T09:58:57.173Z,89.72
2019-02-05T09:59:57.159Z,91.61
2019-02-05T10:00:59.682Z,92.18
2019-02-05T10:01:57.145Z,93.41
2019-02-05T10:02:57.133Z,94.79
2019-02-05T10:03:57.120Z,95.69
2019-02-05T10:04:57.115Z,96.26
2019-02-05T10:05:57.101Z,96.78
2019-02-05T10:06:57.096Z,96.83
2019-02-05T10:07:57.082Z,97.31
2019-02-05T10:08:57.076Z,98.16
2019-02-05T10:09:57.064Z,99.11
2019-02-05T10:10:57.057Z,99.58
2019-02-05T10:11:57.044Z,99.99
2019-02-05T10:12:57.037Z,99.49
2019-02-05T10:13:57.024Z,99.99
2019-02-05T10:14:57.018Z,99.99
2019-02-05T10:15:57.306Z,99.99
2019-02-05T10:16:56.998Z,99.99
2019-02-05T10:17:56.986Z,99.99
2019-02-05T10:18:56.980Z,99.99
2019-02-05T10:19:56.966Z,99.99
2019-02-05T10:20:56.960Z,99.99
2019-02-05T10:21:56.948Z,99.99
2019-02-05T10:22:56.943Z,99.99
2019-02-05T10:23:56.928Z,99.99
2019-02-05T10:24:56.922Z,99.99
2019-02-05T10:25:56.910Z,99.99
2019-02-05T10:26:56.904Z,99.99
2019-02-05T10:27:56.893Z,99.99
2019-02-05T10:28:56.906Z,99.99
2019-02-05T10:29:59.597Z,99.99
2019-02-05T10:30:56.867Z,99.99
2019-02-05T10:31:56.851Z,99.99
2019-02-05T10:32:56.844Z,99.99
2019-02-05T10:33:56.832Z,99.99
2019-02-05T10:34:56.826Z,99.99
2019-02-05T10:35:56.813Z,99.99
2019-02-05T10:36:56.807Z,99.99
2019-02-05T10:37:56.794Z,99.99
2019-02-05T10:38:56.788Z,99.99
2019-02-05T10:39:56.775Z,99.99
2019-02-05T10:40:56.769Z,99.99
2019-02-05T10:41:56.756Z,99.99
2019-02-05T10:42:56.750Z,99.99
2019-02-05T10:43:56.736Z,99.99
2019-02-05T10:44:56.729Z,99.99
2019-02-05T10:45:56.717Z,99.99
2019-02-05T10:46:56.712Z,99.99
2019-02-05T10:47:56.698Z,99.99
2019-02-05T10:48:56.692Z,99.99
2019-02-05T10:49:56.687Z,99.99
2019-02-05T10:50:56.679Z,99.99
2019-02-05T10:51:56.661Z,99.99
2019-02-05T10:52:56.655Z,99.99
2019-02-05T10:53:56.641Z,99.99
2019-02-05T10:54:56.634Z,99.99
2019-02-05T10:55:56.632Z,99.99
2019-02-05T10:56:56.616Z,99.99
2019-02-05T10:57:56.603Z,99.99
2019-02-05T10:58:56.603Z,99.99
2019-02-05T11:00:08.057Z,99.99
2019-02-05T11:00:56.589Z,99.99
2019-02-05T11:01:56.566Z,99.99
2019-02-05T11:02:56.667Z,99.99
2019-02-05T11:03:56.547Z,99.99
2019-02-05T11:04:56.540Z,99.99
2019-02-05T11:05:56.528Z,99.99
2019-02-05T11:06:56.521Z,99.99
2019-02-05T11:07:56.509Z,99.99
2019-02-05T11:08:56.502Z,99.99
2019-02-05T11:09:56.491Z,99.99
2019-02-05T11:10:56.484Z,99.99
2019-02-05T11:11:56.471Z,99.99
2019-02-05T11:12:56.465Z,99.99
2019-02-05T11:13:56.470Z,99.99
2019-02-05T11:14:56.448Z,99.99
2019-02-05T11:15:56.435Z,99.99
2019-02-05T11:16:56.427Z,99.99
2019-02-05T11:17:56.415Z,99.99
2019-02-05T11:18:56.410Z,99.99
2019-02-05T11:19:56.396Z,99.99
2019-02-05T11:20:56.391Z,99.99
2019-02-05T11:21:56.378Z,99.99
2019-02-05T11:22:56.374Z,99.99
2019-02-05T11:23:56.363Z,99.99
2019-02-05T11:24:56.354Z,99.99
2019-02-05T11:25:56.344Z,99.99
2019-02-05T11:26:56.336Z,99.99
2019-02-05T11:27:56.334Z,99.99
2019-02-05T11:28:56.317Z,99.99
2019-02-05T11:29:56.305Z,99.99
2019-02-05T11:30:56.298Z,99.99
2019-02-05T11:31:56.286Z,99.99
2019-02-05T11:32:56.280Z,99.99
2019-02-05T11:33:56.268Z,99.99
2019-02-05T11:34:56.261Z,99.99
2019-02-05T11:35:56.255Z,99.99
2019-02-05T11:36:56.243Z,99.99
2019-02-05T11:37:56.231Z,99.99
2019-02-05T11:38:56.226Z,99.99
2019-02-05T11:39:56.211Z,99.99
2019-02-05T11:40:56.204Z,99.99
2019-02-05T11:41:56.194Z,99.99
2019-02-05T11:42:56.187Z,99.99
2019-02-05T11:43:56.175Z,99.99
2019-02-05T11:44:56.168Z,99.99
2019-02-05T11:45:56.156Z,99.99
2019-02-05T11:46:56.154Z,99.99
2019-02-05T11:47:56.142Z,99.99
2019-02-05T11:48:56.133Z,99.99
2019-02-05T11:49:56.120Z,99.99
2019-02-05T11:50:56.112Z,99.99
2019-02-05T11:51:56.099Z,99.99
2019-02-05T11:52:56.096Z,99.99
2019-02-05T11:53:56.081Z,99.99
2019-02-05T11:54:56.076Z,99.99
2019-02-05T11:55:56.062Z,99.99
2019-02-05T11:56:56.055Z,99.99
2019-02-05T11:57:56.044Z,99.99
2019-02-05T11:58:56.039Z,99.99
2019-02-05T11:59:56.025Z,99.99
2019-02-05T12:00:56.019Z,99.99
2019-02-05T12:01:56.007Z,99.99
2019-02-05T12:02:56.001Z,99.99
2019-02-05T12:03:55.989Z,99.99
2019-02-05T12:04:55.978Z,99.99
2019-02-05T12:05:55.972Z,99.99
2019-02-05T12:06:55.960Z,99.99
2019-02-05T12:07:55.953Z,99.99
2019-02-05T12:08:55.941Z,99.99
2019-02-05T12:09:55.938Z,99.99
2019-02-05T12:10:55.923Z,99.99
2019-02-05T12:11:55.915Z,99.99
2019-02-05T12:12:55.931Z,99.99
2019-02-05T12:13:55.899Z,99.99
2019-02-05T12:14:56.137Z,99.99
2019-02-05T12:15:55.879Z,99.99
2019-02-05T12:16:55.868Z,99.99
2019-02-05T12:17:55.862Z,99.99
2019-02-05T12:18:55.850Z,99.99
2019-02-05T12:19:55.879Z,99.99
2019-02-05T12:20:56.131Z,99.99
2019-02-05T12:21:55.827Z,99.99
2019-02-05T12:22:55.813Z,99.99
2019-02-05T12:23:55.806Z,99.99
2019-02-05T12:24:55.795Z,99.99
2019-02-05T12:25:55.798Z,99.99
2019-02-05T12:26:55.777Z,99.99
2019-02-05T12:27:55.770Z,99.99
2019-02-05T12:28:55.759Z,99.99
2019-02-05T12:29:55.752Z,99.99
2019-02-05T12:30:55.747Z,99.99
2019-02-05T12:31:55.744Z,99.99
2019-02-05T12:32:55.722Z,99.99
2019-02-05T12:33:55.715Z,99.99
2019-02-05T12:34:55.704Z,99.99
2019-02-05T12:35:55.697Z,99.99
2019-02-05T12:36:55.684Z,99.99
2019-02-05T12:37:55.677Z,99.99
2019-02-05T12:38:55.667Z,99.99
2019-02-05T12:39:55.659Z,99.99
2019-02-05T12:40:55.647Z,99.99
2019-02-05T12:41:55.641Z,99.99
2019-02-05T12:42:55.628Z,99.99
2019-02-05T12:43:55.620Z,99.99
2019-02-05T12:44:55.610Z,99.99
2019-02-05T12:45:55.603Z,99.99
2019-02-05T12:46:55.609Z,99.99
2019-02-05T12:47:55.584Z,99.99
2019-02-05T12:48:55.573Z,99.99
2019-02-05T12:49:55.566Z,99.99
2019-02-05T12:50:55.554Z,99.99
2019-02-05T12:51:55.553Z,99.99